Time;durP1;ratioP1;P1;durP2;ratioP2;P2;SDS_P1;SDS_P2;PMS_P1;PMS_P2;Temp;Humidity;BMP_temperature;BMP_pressure;BME280_temperature;BME280_humidity;BME280_pressure;Samples;Min_cycle;Max_cycle;Signal;HPM_P1;HPM_P2
2022/03/22 00:02:03;;;;;;;37.38;27.60;;;;;;;7.11;83.88;103054.31;4718656;30;20136;-85
2022/03/22 00:04:29;;;;;;;41.15;27.95;;;;;;;6.87;83.77;103034.06;4718675;30;20037;-87
2022/03/22 00:06:55;;;;;;;40.47;27.58;;;;;;;6.87;84.21;103044.34;4718348;30;20508;-86
2022/03/22 00:09:21;;;;;;;35.53;25.65;;;;;;;6.94;84.05;103056.25;4718371;30;20162;-81
2022/03/22 00:11:50;;;;;;;36.78;26.75;;;;;;;6.73;84.18;103028.25;4718096;30;20037;-87
2022/03/22 00:14:18;;;;;;;40.22;27.45;;;;;;;6.87;84.17;103055.47;4718031;30;20033;-85
2022/03/22 00:16:44;;;;;;;40.60;27.05;;;;;;;6.72;84.29;103036.84;4718274;30;20041;-84
2022/03/22 00:19:09;;;;;;;36.03;26.35;;;;;;;6.61;83.84;103032.66;4702687;30;20108;-79
2022/03/22 00:21:37;;;;;;;36.10;25.67;;;;;;;5.85;84.28;102915.41;4718096;30;20148;-85
2022/03/22 00:24:04;;;;;;;41.80;26.67;;;;;;;6.53;84.38;103031.91;4718131;30;20163;-78
2022/03/22 00:26:29;;;;;;;38.75;27.10;;;;;;;6.62;84.58;103056.63;4701555;30;20404;-78
2022/03/22 00:28:54;;;;;;;39.55;26.92;;;;;;;6.33;84.52;103024.41;4717837;30;20029;-86
2022/03/22 00:31:20;;;;;;;37.70;26.35;;;;;;;6.45;84.48;103054.22;4718224;30;20037;-87
2022/03/22 00:33:45;;;;;;;38.10;26.05;;;;;;;6.46;84.95;103058.50;4717766;30;20037;-84
2022/03/22 00:36:13;;;;;;;37.15;26.38;;;;;;;6.38;84.89;103057.72;4717906;30;20033;-86
2022/03/22 00:38:38;;;;;;;41.88;27.85;;;;;;;6.39;85.21;103063.69;4717816;30;20550;-85
2022/03/22 00:41:04;;;;;;;36.45;26.83;;;;;;;6.31;85.13;103066.34;4717903;30;20128;-86
2022/03/22 00:43:29;;;;;;;41.92;27.27;;;;;;;5.87;84.94;102990.59;4717861;30;20033;-85
2022/03/22 00:45:55;;;;;;;39.85;27.10;;;;;;;5.74;85.36;102989.88;4717718;30;20040;-86
2022/03/22 00:48:20;;;;;;;38.70;26.45;;;;;;;6.19;85.29;103063.88;4717800;30;20029;-84
2022/03/22 00:50:47;;;;;;;35.30;25.77;;;;;;;6.17;85.28;103063.03;4717854;30;20025;-87
2022/03/22 00:53:13;;;;;;;38.88;27.42;;;;;;;5.93;85.45;103039.31;4717697;30;20438;-82
2022/03/22 00:55:40;;;;;;;38.63;26.58;;;;;;;6.01;85.52;103062.34;4717697;30;20033;-86
2022/03/22 00:58:06;;;;;;;38.90;27.23;;;;;;;6.02;86.06;103064.88;4717069;30;20127;-86
2022/03/22 01:00:33;;;;;;;38.92;26.67;;;;;;;5.64;86.04;103010.47;4717481;30;20040;-87
2022/03/22 01:03:00;;;;;;;38.47;27.27;;;;;;;5.89;86.27;103052.97;4717343;30;20091;-87
2022/03/22 01:05:27;;;;;;;37.03;27.50;;;;;;;5.93;85.80;103064.13;4717571;30;20037;-84
2022/03/22 01:07:57;;;;;;;40.08;27.35;;;;;;;5.73;86.41;103033.47;4717546;30;20077;-82
2022/03/22 01:10:24;;;;;;;38.95;27.25;;;;;;;5.67;86.13;103030.94;4717439;30;20039;-78
2022/03/22 01:12:49;;;;;;;38.70;27.10;;;;;;;5.55;85.99;103011.38;4717314;30;20456;-79
2022/03/22 01:15:18;;;;;;;38.42;27.52;;;;;;;5.68;86.07;103046.28;4717158;30;20123;-87
2022/03/22 01:17:56;;;;;;;38.47;26.98;;;;;;;5.44;86.33;103008.03;4701438;30;20066;-86
2022/03/22 01:20:25;;;;;;;40.88;27.70;;;;;;;5.54;86.24;103039.56;4717240;30;20037;-78
2022/03/22 01:22:52;;;;;;;38.92;26.90;;;;;;;5.65;86.44;103069.41;4717337;30;20029;-87
2022/03/22 01:25:20;;;;;;;41.00;27.50;;;;;;;5.65;87.11;103069.41;4717154;30;20033;-88
2022/03/22 01:27:47;;;;;;;41.15;28.65;;;;;;;5.57;86.70;103076.28;4716893;30;20033;-87
2022/03/22 01:30:14;;;;;;;37.30;27.85;;;;;;;5.48;87.24;103058.38;4717279;30;20033;-87
2022/03/22 01:32:40;;;;;;;40.30;28.27;;;;;;;5.53;87.51;103056.66;4701480;30;20082;-87
2022/03/22 01:35:09;;;;;;;39.05;28.08;;;;;;;5.59;87.62;103063.44;4717022;30;20404;-84
2022/03/22 01:37:36;;;;;;;37.75;27.40;;;;;;;5.58;87.59;103072.84;4716861;30;20136;-85
2022/03/22 01:40:04;;;;;;;42.40;29.63;;;;;;;5.58;87.45;103069.44;4716923;30;20467;-82
2022/03/22 01:42:29;;;;;;;38.45;28.75;;;;;;;5.53;87.38;103069.47;4716962;30;20515;-85
2022/03/22 01:44:55;;;;;;;37.78;27.98;;;;;;;5.52;87.33;103059.25;4701508;30;20036;-86
2022/03/22 01:47:25;;;;;;;41.55;28.35;;;;;;;5.50;87.30;103063.50;4717008;30;20380;-85
2022/03/22 01:49:52;;;;;;;37.10;27.48;;;;;;;5.37;87.49;103032.84;4716941;30;20032;-85
2022/03/22 01:52:20;;;;;;;38.60;28.27;;;;;;;5.61;87.46;103064.31;4717046;30;20103;-85
2022/03/22 01:54:50;;;;;;;43.55;29.00;;;;;;;5.58;87.54;103066.88;4716704;30;20037;-85
2022/03/22 01:57:19;;;;;;;40.33;28.70;;;;;;;5.59;87.44;103066.00;4700765;30;20489;-85
2022/03/22 01:59:46;;;;;;;39.95;26.45;;;;;;;5.54;87.12;103055.81;4716625;30;20033;-82
2022/03/22 02:07:44;;;;;;;40.42;26.90;;;;;;;5.35;87.10;103037.13;4717107;30;20088;-87
2022/03/22 02:10:10;;;;;;;36.95;26.48;;;;;;;5.48;87.54;103056.69;4716974;30;20053;-86
2022/03/22 02:12:35;;;;;;;40.42;26.92;;;;;;;5.50;87.54;103054.09;4717121;30;20068;-86
2022/03/22 02:15:07;;;;;;;36.72;26.25;;;;;;;5.47;87.46;103057.53;4716403;30;20068;-87
2022/03/22 02:17:34;;;;;;;35.42;25.30;;;;;;;5.03;87.24;102988.66;4717048;30;20095;-83
2022/03/22 02:20:01;;;;;;;36.10;25.50;;;;;;;5.38;87.27;103055.03;4716901;30;20448;-87
2022/03/22 02:22:35;;;;;;;37.28;25.85;;;;;;;5.38;87.22;103054.19;4716580;30;20036;-87
2022/03/22 02:25:01;;;;;;;35.38;25.25;;;;;;;5.13;87.07;103015.06;4700870;30;20407;-87
2022/03/22 02:27:27;;;;;;;37.90;27.33;;;;;;;5.29;87.43;103052.50;4716858;30;20428;-87
2022/03/22 02:29:52;;;;;;;35.60;25.58;;;;;;;5.08;87.67;103019.34;4716551;30;20069;-86
2022/03/22 02:32:26;;;;;;;35.42;24.70;;;;;;;5.05;87.48;103033.00;4716609;30;20068;-85
2022/03/22 02:34:52;;;;;;;34.60;24.65;;;;;;;4.99;87.60;103034.75;4716535;30;20033;-79
2022/03/22 02:37:18;;;;;;;38.80;25.52;;;;;;;5.04;87.96;103058.63;4716695;30;20071;-87
2022/03/22 02:39:44;;;;;;;35.28;25.02;;;;;;;5.03;88.00;103057.78;4716640;30;20040;-84
2022/03/22 02:42:10;;;;;;;34.90;25.05;;;;;;;5.02;87.90;103058.66;4716478;30;20470;-85
2022/03/22 02:44:36;;;;;;;34.05;25.38;;;;;;;4.93;87.90;103043.31;4716474;30;20494;-83
2022/03/22 02:47:01;;;;;;;33.67;23.60;;;;;;;4.94;88.02;103045.00;4716710;30;20029;-81
2022/03/22 02:49:30;;;;;;;35.63;24.85;;;;;;;4.98;87.96;103056.09;4717450;30;20045;-79
2022/03/22 02:51:55;;;;;;;38.83;25.73;;;;;;;4.50;87.85;102984.59;4719648;30;20519;-79
2022/03/22 02:54:20;;;;;;;34.17;23.80;;;;;;;4.85;87.95;103045.06;4720000;30;20044;-79
2022/03/22 02:56:46;;;;;;;34.35;24.65;;;;;;;4.78;87.93;103038.25;4704123;30;20068;-78
2022/03/22 02:59:14;;;;;;;36.15;24.00;;;;;;;4.81;88.15;103049.31;4719518;30;20037;-78
2022/03/22 03:01:40;;;;;;;34.72;24.95;;;;;;;4.67;88.48;103040.84;4719482;30;20112;-77
2022/03/22 03:04:05;;;;;;;35.10;24.52;;;;;;;4.76;88.43;103056.16;4719803;30;20116;-78
2022/03/22 03:06:30;;;;;;;32.72;24.52;;;;;;;4.66;88.38;103044.25;4719454;30;20033;-83
2022/03/22 03:08:58;;;;;;;35.60;25.13;;;;;;;4.67;88.23;103065.56;4719531;30;20077;-80
2022/03/22 03:11:25;;;;;;;36.22;24.55;;;;;;;4.32;88.71;103005.94;4719515;30;20025;-80
2022/03/22 03:16:34;;;;;;;37.35;24.30;;;;;;;4.56;89.01;103058.78;4719365;30;20044;-80
2022/03/22 03:19:00;;;;;;;34.33;23.40;;;;;;;4.26;88.79;103016.19;4688887;30;20415;-80
2022/03/22 03:21:25;;;;;;;34.42;22.98;;;;;;;4.51;89.00;103052.81;4719252;30;20456;-83
2022/03/22 03:23:50;;;;;;;34.95;24.40;;;;;;;4.50;88.90;103057.94;4719056;30;20540;-78
2022/03/22 03:26:16;;;;;;;32.50;22.77;;;;;;;4.50;88.91;103061.34;4719335;30;20071;-79
2022/03/22 03:28:41;;;;;;;35.42;23.88;;;;;;;4.46;88.68;103058.81;4719227;30;20040;-84
2022/03/22 03:31:10;;;;;;;42.75;24.88;;;;;;;4.49;89.03;103062.19;4719244;30;20037;-88
2022/03/22 03:33:35;;;;;;;35.13;24.48;;;;;;;4.48;89.16;103062.19;4719093;30;20439;-83
2022/03/22 03:36:02;;;;;;;31.27;24.15;;;;;;;4.43;89.03;103063.94;4718770;30;20112;-81
2022/03/22 03:38:28;;;;;;;35.60;24.77;;;;;;;4.37;88.79;103067.34;4718901;30;20398;-85
2022/03/22 03:43:37;;;;;;;32.67;23.85;;;;;;;4.27;89.30;103071.59;4719207;30;20411;-81
2022/03/22 03:48:46;;;;;;;35.20;24.40;;;;;;;4.21;89.78;103081.84;4719174;30;20552;-87
2022/03/22 03:51:12;;;;;;;32.70;23.60;;;;;;;4.08;90.00;103067.34;4718694;30;20033;-84
2022/03/22 03:53:40;;;;;;;36.17;23.77;;;;;;;4.16;89.33;103085.25;4718695;30;20037;-78
2022/03/22 03:56:05;;;;;;;33.83;23.10;;;;;;;4.11;89.51;103090.34;4718898;30;20029;-86
2022/03/22 03:58:31;;;;;;;35.25;24.63;;;;;;;3.90;89.70;103055.41;4718519;30;20388;-82
2022/03/22 04:00:56;;;;;;;31.95;23.02;;;;;;;3.99;89.91;103073.31;4717767;30;20041;-85
2022/03/22 04:03:22;;;;;;;32.42;24.30;;;;;;;3.83;89.55;103050.28;4702907;30;20407;-87
2022/03/22 04:05:47;;;;;;;35.63;23.70;;;;;;;4.03;89.54;103089.50;4718489;30;20120;-86
2022/03/22 04:08:13;;;;;;;35.13;25.40;;;;;;;3.94;89.49;103077.59;4718626;30;20029;-88
2022/03/22 04:10:38;;;;;;;35.03;24.42;;;;;;;3.99;89.77;103098.03;4718636;30;20034;-81
2022/03/22 04:13:03;;;;;;;34.33;23.67;;;;;;;3.89;89.84;103086.09;4718595;30;20030;-79
2022/03/22 04:15:29;;;;;;;34.42;23.75;;;;;;;3.67;89.83;103054.56;4718127;30;20063;-80
2022/03/22 04:17:59;;;;;;;36.17;24.88;;;;;;;3.84;89.96;103087.81;4718165;30;20033;-79
2022/03/22 04:20:25;;;;;;;30.70;22.08;;;;;;;3.81;89.55;103092.88;4718443;30;20399;-79
2022/03/22 04:22:51;;;;;;;32.78;23.55;;;;;;;3.86;89.88;103102.28;4718362;30;20040;-78
2022/03/22 04:25:17;;;;;;;31.30;22.80;;;;;;;3.62;90.06;103059.63;4718367;30;20069;-84
2022/03/22 04:33:10;;;;;;;31.30;23.35;;;;;;;3.87;90.02;103103.13;4718210;30;20044;-78
2022/03/22 04:35:37;;;;;;;31.30;22.65;;;;;;;3.86;89.74;103109.94;4718195;30;20064;-78
2022/03/22 04:38:02;;;;;;;32.47;22.70;;;;;;;3.83;90.03;103103.97;4718144;30;20041;-79
2022/03/22 04:40:28;;;;;;;31.15;21.02;;;;;;;3.57;89.60;103068.16;4718051;30;20099;-86
2022/03/22 04:42:53;;;;;;;32.35;21.75;;;;;;;3.78;89.96;103095.47;4717919;30;20044;-86
2022/03/22 04:45:19;;;;;;;31.85;21.48;;;;;;;3.76;90.03;103099.72;4702090;30;20029;-86
2022/03/22 04:47:45;;;;;;;33.95;22.95;;;;;;;3.40;89.87;103038.31;4717579;30;20101;-86
2022/03/22 04:50:12;;;;;;;34.33;22.77;;;;;;;3.75;90.18;103096.31;4717780;30;20064;-85
2022/03/22 04:58:06;;;;;;;30.75;22.70;;;;;;;3.81;90.44;103105.66;4717822;30;20123;-84
2022/03/22 05:00:34;;;;;;;30.98;22.30;;;;;;;3.76;89.96;103104.81;4717439;30;20033;-81
2022/03/22 05:03:00;;;;;;;30.92;21.50;;;;;;;3.47;89.86;103051.13;4702258;30;20446;-79
2022/03/22 05:08:09;;;;;;;35.78;22.90;;;;;;;3.70;89.78;103106.50;4717749;30;20130;-83
2022/03/22 05:10:35;;;;;;;31.08;22.60;;;;;;;3.44;89.76;103086.03;4717589;30;20118;-86
2022/03/22 05:13:01;;;;;;;36.10;22.48;;;;;;;3.49;89.83;103095.38;4717399;30;20048;-80
2022/03/22 05:15:27;;;;;;;29.45;21.25;;;;;;;3.55;89.80;103114.16;4717249;30;20044;-83
2022/03/22 05:17:52;;;;;;;32.50;21.77;;;;;;;3.44;89.87;103092.81;4717345;30;20037;-84
2022/03/22 05:20:18;;;;;;;33.08;23.05;;;;;;;3.36;89.87;103094.50;4717397;30;20479;-85
2022/03/22 05:22:44;;;;;;;32.78;23.27;;;;;;;3.39;89.88;103110.69;4717367;30;20445;-78
2022/03/22 05:25:10;;;;;;;34.10;22.65;;;;;;;3.48;89.86;103132.84;4717152;30;20502;-81
2022/03/22 05:27:37;;;;;;;33.05;22.50;;;;;;;3.36;90.26;103114.94;4717448;30;20037;-82
2022/03/22 05:30:04;;;;;;;39.88;22.95;;;;;;;3.53;90.64;103128.59;4717019;30;20033;-78
2022/03/22 05:32:29;;;;;;;31.55;22.30;;;;;;;3.38;90.71;103103.88;4717267;30;20133;-79
2022/03/22 05:34:55;;;;;;;33.30;24.50;;;;;;;3.59;90.60;103122.66;4716981;30;20490;-78
2022/03/22 05:37:22;;;;;;;33.38;22.95;;;;;;;3.71;90.53;103140.56;4717095;30;20037;-85
2022/03/22 05:39:47;;;;;;;31.70;22.33;;;;;;;3.71;90.42;103149.09;4716978;30;20454;-78
2022/03/22 05:42:13;;;;;;;35.33;23.23;;;;;;;3.67;90.27;103139.72;4717063;30;20029;-84
2022/03/22 05:44:39;;;;;;;33.50;23.88;;;;;;;3.59;90.07;103125.22;4701267;30;20033;-79
2022/03/22 05:47:06;;;;;;;33.33;23.17;;;;;;;3.75;90.53;103144.88;4716941;30;20394;-78
2022/03/22 05:49:33;;;;;;;37.53;24.23;;;;;;;3.81;90.54;103144.00;4700896;30;20052;-82
2022/03/22 05:51:59;;;;;;;36.78;25.05;;;;;;;3.64;90.28;103115.88;4701080;30;20403;-77
2022/03/22 05:54:25;;;;;;;38.08;23.25;;;;;;;3.86;90.45;103147.44;4716861;30;20459;-80
2022/03/22 05:56:50;;;;;;;34.53;23.73;;;;;;;3.93;90.46;103144.03;4716740;30;20091;-82
2022/03/22 05:59:15;;;;;;;34.70;24.15;;;;;;;3.96;90.29;103136.38;4716858;30;20033;-83
2022/03/22 06:01:44;;;;;;;35.55;23.75;;;;;;;3.81;89.84;103101.41;4716806;30;20091;-78
2022/03/22 06:04:11;;;;;;;32.83;24.35;;;;;;;4.13;89.99;103139.81;4716925;30;20056;-78
2022/03/22 06:06:37;;;;;;;35.60;23.88;;;;;;;4.03;89.53;103120.19;4717013;30;20033;-84
2022/03/22 06:09:03;;;;;;;34.65;23.83;;;;;;;4.24;88.98;103144.94;4716895;30;20033;-83
2022/03/22 06:11:33;;;;;;;36.97;24.10;;;;;;;4.28;89.16;103149.19;4716498;30;20051;-79
2022/03/22 06:13:59;;;;;;;34.90;24.58;;;;;;;4.34;88.83;103145.78;4716627;30;20044;-77
2022/03/22 06:16:24;;;;;;;34.08;24.30;;;;;;;4.47;88.95;103155.16;4716843;30;20391;-83
2022/03/22 06:18:50;;;;;;;36.33;23.50;;;;;;;4.58;88.89;103153.44;4716660;30;20061;-78
2022/03/22 06:21:18;;;;;;;31.95;23.02;;;;;;;4.55;88.15;103146.63;4716812;30;20084;-84
2022/03/22 06:23:43;;;;;;;35.80;23.88;;;;;;;4.73;87.96;103153.44;4700510;30;20052;-86
2022/03/22 06:26:09;;;;;;;36.90;24.95;;;;;;;4.89;87.94;103154.25;4719851;30;20029;-78
2022/03/22 06:28:34;;;;;;;37.58;23.58;;;;;;;5.02;87.90;103153.38;4720061;30;20108;-78
2022/03/22 06:31:00;;;;;;;38.92;24.75;;;;;;;5.12;87.41;103155.06;4720160;30;20037;-78
2022/03/22 06:33:25;;;;;;;39.20;23.83;;;;;;;5.16;87.17;103143.94;4719802;30;20037;-78
2022/03/22 06:35:51;;;;;;;34.08;23.48;;;;;;;5.42;86.75;103154.09;4720023;30;20372;-78
2022/03/22 06:38:18;;;;;;;39.65;24.02;;;;;;;5.56;86.53;103158.31;4719970;30;20072;-78
2022/03/22 06:40:44;;;;;;;35.72;24.30;;;;;;;5.74;85.81;103150.53;4719635;30;20112;-78
2022/03/22 06:43:12;;;;;;;37.50;23.83;;;;;;;5.86;85.12;103150.44;4720083;30;20101;-80
2022/03/22 06:45:38;;;;;;;35.17;23.38;;;;;;;6.17;84.62;103161.38;4720034;30;20044;-81
2022/03/22 06:48:07;;;;;;;37.55;23.13;;;;;;;6.19;83.22;103069.00;4719638;30;20052;-80
2022/03/22 06:50:34;;;;;;;32.70;22.27;;;;;;;7.47;80.61;103160.06;4719765;30;20099;-77
2022/03/22 06:53:01;;;;;;;32.92;22.05;;;;;;;8.11;78.39;103160.91;4719634;30;20029;-78
2022/03/22 06:55:26;;;;;;;30.42;22.40;;;;;;;8.71;75.44;103158.22;4719483;30;20036;-77
2022/03/22 06:57:52;;;;;;;34.50;22.88;;;;;;;9.18;73.92;103145.28;4719390;30;20053;-79
2022/03/22 07:00:20;;;;;;;32.83;22.15;;;;;;;9.70;72.04;103161.41;4719540;30;20124;-77
2022/03/22 07:02:46;;;;;;;33.53;22.63;;;;;;;9.97;70.81;103168.53;4719443;30;20033;-77
2022/03/22 07:05:12;;;;;;;33.42;22.45;;;;;;;10.20;69.35;103169.72;4719400;30;20037;-76
2022/03/22 07:07:38;;;;;;;28.23;20.92;;;;;;;10.17;68.48;103169.78;4719525;30;20040;-77
2022/03/22 07:10:09;;;;;;;30.20;20.80;;;;;;;9.73;69.30;103144.13;4719292;30;20037;-77
2022/03/22 07:13:05;;;;;;;32.10;21.55;;;;;;;9.46;70.60;103153.31;4719345;30;20123;-77
2022/03/22 07:15:36;;;;;;;29.80;22.02;;;;;;;9.25;71.08;103176.97;4719173;30;20041;-77
2022/03/22 07:18:08;;;;;;;27.33;21.25;;;;;;;9.07;71.66;103177.31;4719305;30;20402;-78
2022/03/22 07:20:34;;;;;;;31.65;21.83;;;;;;;8.91;72.23;103176.75;4718959;30;20044;-79
2022/03/22 07:23:01;;;;;;;30.42;22.45;;;;;;;8.54;72.80;103140.50;4719373;30;20048;-77
2022/03/22 07:25:26;;;;;;;30.67;21.95;;;;;;;8.67;73.12;103183.22;4719309;30;20079;-77
2022/03/22 07:27:52;;;;;;;32.63;21.73;;;;;;;8.60;73.41;103185.03;4719271;30;20442;-78
2022/03/22 07:30:17;;;;;;;31.20;22.25;;;;;;;8.55;73.63;103173.97;4719230;30;20508;-77
2022/03/22 07:32:44;;;;;;;27.85;21.17;;;;;;;8.51;73.36;103177.44;4703095;30;20124;-76
2022/03/22 07:35:11;;;;;;;28.35;20.85;;;;;;;8.34;72.99;103154.56;4718334;30;20044;-77
2022/03/22 07:37:38;;;;;;;29.33;22.20;;;;;;;8.46;73.36;103171.53;4718650;30;20033;-77
2022/03/22 07:40:06;;;;;;;32.85;22.55;;;;;;;8.34;73.03;103148.53;4729450;30;20057;-75
2022/03/22 07:42:32;;;;;;;31.50;21.88;;;;;;;8.49;73.30;103175.78;4735944;30;20044;-74
2022/03/22 07:45:00;;;;;;;30.73;23.30;;;;;;;8.61;73.23;103181.56;4736101;30;20043;-74
2022/03/22 07:47:26;;;;;;;31.10;22.20;;;;;;;8.48;73.15;103156.06;4736281;30;20517;-75
2022/03/22 07:52:58;;;;;;;;;;;;;;;8.82;74.16;103180.34;4682672;30;20034;-76
2022/03/22 07:55:26;;;;;;;29.95;21.45;;;;;;;8.92;72.00;103188.75;4683658;30;19926;-76
2022/03/22 07:57:52;;;;;;;32.55;22.75;;;;;;;8.72;71.66;103145.31;4682025;30;20496;-76
2022/03/22 08:00:18;;;;;;;29.75;20.65;;;;;;;9.00;71.59;103175.72;4682090;30;20046;-74
2022/03/22 08:02:55;;;;;;;30.88;22.73;;;;;;;9.18;71.86;103183.97;4681760;30;20504;-82
2022/03/22 08:05:21;;;;;;;28.60;22.00;;;;;;;9.22;71.03;103176.16;4682012;30;20045;-74
2022/03/22 08:07:47;;;;;;;31.23;22.48;;;;;;;9.34;71.16;103174.22;4681758;30;20113;-75
2022/03/22 08:10:22;;;;;;;30.88;22.60;;;;;;;9.33;70.88;103163.91;4681800;30;20165;-75
2022/03/22 08:12:48;;;;;;;28.63;22.48;;;;;;;9.62;70.04;103186.50;4681858;30;20045;-75
2022/03/22 08:15:14;;;;;;;32.50;22.40;;;;;;;9.62;69.60;103165.88;4681755;30;20045;-75
2022/03/22 08:17:40;;;;;;;33.53;24.45;;;;;;;9.69;69.08;103159.72;4681799;30;20625;-76
2022/03/22 08:20:08;;;;;;;31.58;24.17;;;;;;;9.95;69.67;103190.94;4681408;30;20121;-76
2022/03/22 08:22:50;;;;;;;30.05;23.60;;;;;;;10.06;69.22;103193.28;4681604;30;20550;-76
2022/03/22 08:25:28;;;;;;;31.95;23.42;;;;;;;10.18;69.18;103194.72;4681647;30;20049;-75
2022/03/22 08:27:55;;;;;;;31.27;23.35;;;;;;;10.14;67.56;103164.72;4681389;30;20038;-76
2022/03/22 08:30:24;;;;;;;30.65;22.73;;;;;;;10.20;67.44;103159.38;4727064;30;20040;-76
2022/03/22 08:32:50;;;;;;;30.90;23.48;;;;;;;9.91;66.46;103101.56;4735255;30;20498;-76
2022/03/22 08:35:17;;;;;;;32.20;23.73;;;;;;;10.60;66.08;103185.09;4735424;30;20491;-77
2022/03/22 08:37:43;;;;;;;31.77;23.05;;;;;;;10.63;66.39;103182.47;4735513;30;20051;-76
2022/03/22 08:40:24;;;;;;;32.55;22.90;;;;;;;10.77;66.43;103182.09;4735666;30;20475;-76
2022/03/22 08:42:52;;;;;;;29.52;21.88;;;;;;;10.38;64.74;103115.06;4735416;30;20029;-75
2022/03/22 08:45:22;;;;;;;30.95;23.42;;;;;;;10.93;65.22;103190.31;4735179;30;20049;-75
2022/03/22 08:47:50;;;;;;;30.17;22.02;;;;;;;10.86;64.59;103167.19;4735328;30;20515;-78
2022/03/22 08:50:18;;;;;;;29.20;22.23;;;;;;;11.14;64.31;103197.47;4735263;30;20021;-77
2022/03/22 08:52:56;;;;;;;28.17;22.17;;;;;;;10.76;64.61;103115.78;4735432;30;20453;-82
2022/03/22 08:55:25;;;;;;;30.45;23.25;;;;;;;10.49;64.60;103065.69;4718807;30;20400;-77
2022/03/22 08:58:06;;;;;;;28.55;22.23;;;;;;;10.52;64.22;103048.41;4734949;30;20053;-77
2022/03/22 09:00:33;;;;;;;29.30;22.93;;;;;;;11.45;63.84;103185.38;4735156;30;20036;-82
2022/03/22 09:02:59;;;;;;;32.55;24.30;;;;;;;11.56;63.36;103190.22;4735252;30;20112;-84
2022/03/22 09:08:55;;;;;;;34.83;26.60;;;;;;;11.35;62.33;103121.00;4735411;30;20052;-86
2022/03/22 09:11:21;;;;;;;42.78;29.40;;;;;;;11.10;61.44;103071.72;4735240;30;20044;-85
2022/03/22 09:13:54;;;;;;;42.33;30.67;;;;;;;11.80;61.71;103182.63;4734689;30;20036;-85
2022/03/22 09:16:28;;;;;;;36.33;27.48;;;;;;;11.60;62.63;103137.50;4734814;30;20041;-85
2022/03/22 09:18:53;;;;;;;39.28;28.20;;;;;;;11.89;61.36;103170.25;4735029;30;20542;-87
2022/03/22 09:21:19;;;;;;;39.90;28.35;;;;;;;11.80;62.00;103143.81;4735017;30;20155;-88
2022/03/22 09:23:45;;;;;;;33.38;24.65;;;;;;;11.89;61.57;103157.31;4734766;30;20368;-84
2022/03/22 09:26:26;;;;;;;32.72;23.15;;;;;;;12.13;62.10;103191.13;4734743;30;20032;-75
2022/03/22 09:28:57;;;;;;;35.28;25.63;;;;;;;12.06;62.15;103160.22;4716640;30;20388;-85
2022/03/22 09:31:30;;;;;;;33.67;25.08;;;;;;;12.19;60.78;103167.59;4717301;30;20033;-79
2022/03/22 09:33:57;;;;;;;31.83;24.10;;;;;;;12.30;59.63;103183.66;4717223;30;20040;-83
2022/03/22 09:36:22;;;;;;;31.20;23.45;;;;;;;12.17;59.72;103162.47;4699998;30;20077;-84
2022/03/22 09:39:06;;;;;;;29.95;23.30;;;;;;;12.24;60.85;103160.53;4701280;30;20056;-83
2022/03/22 09:41:35;;;;;;;40.97;23.80;;;;;;;12.22;59.81;103139.88;4717346;30;20044;-86
2022/03/22 09:44:02;;;;;;;29.52;23.65;;;;;;;12.42;59.82;103161.69;4717103;30;20036;-81
2022/03/22 09:46:29;;;;;;;28.98;22.10;;;;;;;12.55;57.75;103175.91;4717857;30;20037;-88
2022/03/22 09:48:54;;;;;;;31.23;23.30;;;;;;;12.46;58.42;103140.78;4717246;30;20037;-77
2022/03/22 09:54:07;;;;;;;31.08;22.08;;;;;;;12.86;57.12;103178.28;4718477;30;20052;-82
2022/03/22 09:56:33;;;;;;;30.75;22.13;;;;;;;12.90;56.82;103170.34;4701263;30;20037;-78
2022/03/22 09:58:59;;;;;;;33.88;23.05;;;;;;;12.71;55.38;103134.75;4700604;30;20427;-89
2022/03/22 10:01:27;;;;;;;28.50;21.48;;;;;;;13.01;56.25;103169.13;4717197;30;20112;-88
2022/03/22 10:04:07;;;;;;;28.85;22.63;;;;;;;13.07;57.27;103172.34;4717128;30;20037;-86
2022/03/22 10:06:33;;;;;;;30.77;23.13;;;;;;;13.13;54.85;103169.53;4701008;30;20195;-83
2022/03/22 10:09:00;;;;;;;29.30;21.67;;;;;;;13.15;55.14;103169.47;4716926;30;20033;-77
2022/03/22 10:11:43;;;;;;;29.15;21.70;;;;;;;13.18;55.79;103148.63;4717110;30;20033;-79
2022/03/22 10:14:10;;;;;;;34.03;23.88;;;;;;;13.05;54.83;103126.59;4716872;30;20037;-82
2022/03/22 10:16:50;;;;;;;35.67;24.05;;;;;;;13.30;54.71;103155.97;4716951;30;20029;-82
2022/03/22 10:19:23;;;;;;;29.15;22.08;;;;;;;13.42;54.91;103155.50;4716793;30;20025;-77
2022/03/22 10:21:50;;;;;;;31.25;22.73;;;;;;;13.47;53.14;103160.53;4716745;30;20429;-78
2022/03/22 10:24:15;;;;;;;34.83;24.10;;;;;;;13.52;53.45;103144.78;4716766;30;20081;-80
2022/03/22 10:26:46;;;;;;;32.17;22.23;;;;;;;13.69;52.63;103155.38;4717095;30;20410;-79
2022/03/22 10:29:13;;;;;;;32.00;22.15;;;;;;;13.73;53.40;103143.94;4700946;30;20044;-86
2022/03/22 10:31:40;;;;;;;33.42;22.00;;;;;;;13.77;52.51;103159.34;4719362;30;20082;-77
2022/03/22 10:34:28;;;;;;;29.58;21.50;;;;;;;13.79;52.89;103156.69;4774332;24;20134;-84
2022/03/22 10:36:54;;;;;;;28.98;21.15;;;;;;;13.32;50.91;103052.97;4716984;30;20033;-84
2022/03/22 10:39:21;;;;;;;30.10;19.67;;;;;;;13.97;51.93;103147.31;4716956;30;20087;-89
2022/03/22 10:41:46;;;;;;;34.70;21.58;;;;;;;14.02;50.10;103150.56;4716843;30;20033;-84
2022/03/22 10:44:14;;;;;;;32.55;21.40;;;;;;;13.94;49.90;103119.69;4716681;30;20044;-78
2022/03/22 10:46:43;;;;;;;28.08;19.88;;;;;;;14.15;49.58;103143.13;4716358;30;20036;-78
2022/03/22 10:49:11;;;;;;;30.38;21.92;;;;;;;14.17;48.86;103141.31;4701273;30;20449;-86
2022/03/22 10:51:45;;;;;;;31.35;20.67;;;;;;;14.26;49.78;103138.34;4716439;30;20120;-78
2022/03/22 10:54:12;;;;;;;28.95;20.73;;;;;;;14.11;50.79;103100.00;4716664;30;20033;-79
2022/03/22 10:56:47;;;;;;;27.15;20.42;;;;;;;14.41;49.06;103135.09;4715937;30;20079;-82
2022/03/22 10:59:17;;;;;;;28.67;20.83;;;;;;;14.56;49.87;103134.47;4716759;30;20069;-79
2022/03/22 11:01:50;;;;;;;29.30;21.40;;;;;;;14.66;47.69;103141.88;4684989;30;20099;-79
2022/03/22 11:04:17;;;;;;;29.70;20.13;;;;;;;14.69;47.78;103131.34;4716475;30;20041;-84
2022/03/22 11:06:47;;;;;;;28.92;20.65;;;;;;;14.79;47.19;103138.66;4700800;30;20041;-78
2022/03/22 11:09:14;;;;;;;28.70;20.77;;;;;;;14.83;46.94;103140.22;4716579;30;20037;-79
2022/03/22 11:11:54;;;;;;;28.35;20.67;;;;;;;14.72;47.23;103123.38;4718841;30;20108;-82
2022/03/22 11:14:20;;;;;;;30.17;21.90;;;;;;;14.66;46.62;103089.88;4719629;30;20041;-79
2022/03/22 11:16:50;;;;;;;27.42;20.63;;;;;;;14.99;47.28;103132.56;4719458;30;20037;-79
2022/03/22 11:19:17;;;;;;;30.15;21.70;;;;;;;15.03;46.28;103135.88;4719565;30;20113;-80
2022/03/22 11:21:42;;;;;;;29.70;20.77;;;;;;;14.85;47.11;103091.59;4719284;30;20037;-78
2022/03/22 11:24:11;;;;;;;29.63;21.77;;;;;;;14.90;45.93;103093.97;4719157;30;20056;-83
2022/03/22 11:26:46;;;;;;;29.48;20.73;;;;;;;15.24;45.91;103123.63;4719488;30;20073;-76
2022/03/22 11:29:15;;;;;;;26.15;19.58;;;;;;;15.34;46.36;103122.28;4719542;30;20116;-76
2022/03/22 11:34:08;;;;;;;28.35;19.08;;;;;;;15.45;45.23;103130.47;4719410;30;20044;-82
2022/03/22 11:34:32;;;;;;;25.08;18.25;;;;;;;15.41;45.74;103106.31;4718812;30;20068;-76
2022/03/22 11:36:59;;;;;;;26.75;19.58;;;;;;;15.50;44.20;103118.06;4718867;30;20124;-85
2022/03/22 11:42:36;;;;;;;29.42;18.70;;;;;;;15.61;47.06;103122.81;4720850;30;20525;-76
2022/03/22 11:45:03;;;;;;;;;;;;;;;15.58;47.25;103121.16;4719187;30;20045;-76
2022/03/22 11:47:40;;;;;;;26.75;18.52;;;;;;;15.28;44.77;103058.38;4719186;30;20295;-88
2022/03/22 11:50:16;;;;;;;26.52;18.92;;;;;;;15.19;44.02;103036.22;4719145;30;20068;-78
2022/03/22 11:52:42;;;;;;;25.40;18.23;;;;;;;15.66;44.59;103110.41;4719894;30;20064;-75
2022/03/22 11:55:13;;;;;;;23.80;17.95;;;;;;;15.72;45.05;103123.13;4719752;30;20483;-81
2022/03/22 11:57:50;;;;;;;25.40;18.23;;;;;;;15.72;44.84;103103.13;4719383;30;20119;-76